EHBK

Maastricht Aachen Airport

Airport
ICAO code
EHBK
IATA Code
MST
Summary
ICAO Region
EUR
ICAO Territory
Location

Beek, Limburg

Serving
Maastricht
Elevation
375 ft
Coordinates
50° 54' 42" N , 5° 46' 13" E
KCC
Cfb
Metar
Observation
EHBK 140725Z AUTO VRB02KT 9999 NSC 25/11 Q1009 NOSIG
Station
Maastricht Airport Zuid Limburg
Date/Time
2022-08-14 07:25:00
Wind speed
02 kts
Lowest cloud amount
nil significant cloud
Temperature
25°C
Dew point
11°C
Humidity
41%
QNH
1009 hPa
Weather condition
n/a

Maastricht Aachen Airport is a regional airport located 5 nm northeast of the city of Maastricht, in the town of Beek, both municipalities in the Limburg province in the Netherlands. The airport is also 15 nm northwest of Aachen, a city in Germany.

Climatology

Temperate Marine climate/Oceanic climate (Köppen climate classification Cfb). Moderately cool summer and comparatively warm winter with a temperature range of only 14°C. Prevailing south-westerly winds from the Atlantic Ocean.

Runways

Designator Length Width Surface Rops
3/21 2500 45 ASP Yes/Yes

SKYbrary Partners:

Safety knowledge contributed by: